Time;durP1;ratioP1;P1;durP2;ratioP2;P2;SDS_P1;SDS_P2;PMS_P1;PMS_P2;Temp;Humidity;BMP_temperature;BMP_pressure;BME280_temperature;BME280_humidity;BME280_pressure;Samples;Min_cycle;Max_cycle;Signal;HPM_P1;HPM_P2
2021/07/31 00:01:24;;;;;;;1.20;1.00;;;24.70;54.10;;;;;;5098913;28;20589;-70
2021/07/31 00:03:54;;;;;;;1.30;1.00;;;24.60;54.10;;;;;;5107077;28;20581;-70
2021/07/31 00:06:30;;;;;;;1.20;0.90;;;24.70;54.20;;;;;;5104224;28;20196;-70
2021/07/31 00:08:59;;;;;;;1.10;1.00;;;24.70;54.10;;;;;;5103267;28;20204;-70
2021/07/31 00:11:29;;;;;;;1.23;1.13;;;24.60;54.10;;;;;;5102842;28;20429;-70
2021/07/31 00:13:58;;;;;;;1.03;0.70;;;24.70;54.20;;;;;;5094437;28;20207;-70
2021/07/31 00:16:33;;;;;;;1.17;0.77;;;24.60;54.10;;;;;;5105485;28;20199;-70
2021/07/31 00:19:05;;;;;;;1.13;1.03;;;24.60;54.10;;;;;;5098009;28;20212;-70
2021/07/31 00:21:33;;;;;;;1.07;0.90;;;24.60;54.10;;;;;;5103190;28;20193;-70
2021/07/31 00:24:05;;;;;;;1.77;0.80;;;24.60;54.20;;;;;;5098688;28;20579;-70
2021/07/31 00:26:35;;;;;;;0.70;0.70;;;24.60;54.10;;;;;;5096887;28;20204;-70
2021/07/31 00:29:04;;;;;;;1.43;1.00;;;24.60;54.10;;;;;;5099412;28;20189;-70
2021/07/31 00:31:37;;;;;;;1.67;0.97;;;24.60;54.10;;;;;;5103564;28;20212;-70
2021/07/31 00:34:08;;;;;;;1.47;0.83;;;24.60;54.10;;;;;;5099648;28;20299;-70
2021/07/31 00:36:36;;;;;;;1.27;0.90;;;24.60;54.10;;;;;;5095088;28;20218;-70
2021/07/31 00:39:06;;;;;;;1.30;0.90;;;24.60;54.10;;;;;;5097824;28;20193;-70
2021/07/31 00:41:36;;;;;;;0.97;0.80;;;24.60;54.10;;;;;;5104480;28;20742;-70
2021/07/31 00:44:07;;;;;;;1.27;0.90;;;24.60;54.20;;;;;;5107531;28;20587;-70
2021/07/31 00:46:36;;;;;;;1.13;0.87;;;24.60;54.10;;;;;;5107542;28;20285;-70
2021/07/31 00:49:08;;;;;;;1.80;0.90;;;24.60;54.10;;;;;;5106752;28;20682;-70
2021/07/31 00:51:42;;;;;;;0.97;0.90;;;24.60;54.10;;;;;;5107907;28;20232;-70
2021/07/31 00:54:14;;;;;;;1.03;0.93;;;24.60;54.10;;;;;;5092643;28;20223;-70
2021/07/31 00:56:45;;;;;;;2.63;0.90;;;24.60;54.10;;;;;;5099961;28;20201;-70
2021/07/31 00:59:14;;;;;;;1.07;0.97;;;24.60;54.10;;;;;;5110172;28;20192;-70
2021/07/31 01:01:45;;;;;;;0.77;0.70;;;24.60;54.10;;;;;;5099155;28;20240;-70
2021/07/31 01:04:15;;;;;;;1.23;0.77;;;24.50;54.10;;;;;;5110919;28;20200;-70
2021/07/31 01:06:46;;;;;;;1.60;1.07;;;24.60;54.10;;;;;;5101638;28;20295;-70
2021/07/31 01:09:17;;;;;;;1.03;1.00;;;24.50;54.20;;;;;;5093243;28;20258;-70
2021/07/31 01:11:48;;;;;;;1.27;1.03;;;24.50;54.10;;;;;;5098589;28;20225;-70
2021/07/31 01:14:16;;;;;;;1.50;1.00;;;24.60;54.10;;;;;;5107913;28;20207;-70
2021/07/31 01:16:53;;;;;;;1.17;0.80;;;24.50;54.10;;;;;;5103993;28;20200;-70
2021/07/31 01:19:27;;;;;;;1.33;0.90;;;24.50;54.10;;;;;;5106305;28;20222;-70
2021/07/31 01:21:56;;;;;;;1.33;1.10;;;24.60;54.20;;;;;;5101371;28;20545;-70
2021/07/31 01:24:27;;;;;;;0.80;0.80;;;24.50;54.20;;;;;;5101406;28;20224;-70
2021/07/31 01:26:57;;;;;;;1.00;0.93;;;24.50;54.20;;;;;;5095756;28;20192;-70
2021/07/31 01:29:27;;;;;;;0.80;0.80;;;24.50;54.20;;;;;;5098406;28;20568;-70
2021/07/31 01:32:04;;;;;;;0.80;0.80;;;24.50;54.20;;;;;;5102437;28;20208;-70
2021/07/31 01:34:37;;;;;;;1.00;0.90;;;24.50;54.20;;;;;;5103388;28;20192;-70
2021/07/31 01:37:09;;;;;;;2.10;1.27;;;24.50;54.30;;;;;;5110444;28;20233;-70
2021/07/31 01:39:39;;;;;;;1.43;1.00;;;24.40;54.20;;;;;;5106663;28;20242;-70
2021/07/31 01:42:11;;;;;;;1.10;1.00;;;24.50;54.30;;;;;;5096620;28;20225;-70
2021/07/31 01:44:42;;;;;;;1.60;0.90;;;24.40;54.10;;;;;;5104477;28;20241;-70
2021/07/31 01:47:19;;;;;;;1.80;1.00;;;24.50;54.20;;;;;;5106351;28;20195;-70
2021/07/31 01:49:50;;;;;;;1.23;1.00;;;24.50;54.20;;;;;;5106411;28;20209;-70
2021/07/31 01:52:20;;;;;;;1.13;1.00;;;24.50;54.20;;;;;;5105763;28;20244;-70
2021/07/31 01:54:50;;;;;;;1.33;1.00;;;24.40;54.20;;;;;;5105115;28;20199;-70
2021/07/31 01:57:22;;;;;;;1.50;1.20;;;24.50;54.20;;;;;;5105509;28;20778;-70
2021/07/31 01:59:53;;;;;;;1.90;1.07;;;24.40;54.80;;;;;;5096773;28;20222;-70
2021/07/31 02:02:23;;;;;;;1.13;1.03;;;24.40;54.10;;;;;;5105557;28;20232;-70
2021/07/31 02:04:55;;;;;;;1.73;1.00;;;24.40;54.20;;;;;;5104554;28;20203;-70
2021/07/31 02:07:33;;;;;;;1.67;1.17;;;24.40;54.20;;;;;;5102643;28;20626;-70
2021/07/31 02:10:05;;;;;;;1.83;1.00;;;24.40;54.20;;;;;;5106212;28;20216;-69
2021/07/31 02:12:35;;;;;;;1.23;1.00;;;24.40;54.20;;;;;;5106249;28;20281;-70
2021/07/31 02:15:06;;;;;;;1.10;1.00;;;24.40;54.20;;;;;;5107801;28;20276;-70
2021/07/31 02:17:35;;;;;;;0.83;0.80;;;24.40;54.20;;;;;;5102418;28;20808;-69
2021/07/31 02:20:10;;;;;;;1.77;1.10;;;24.40;54.20;;;;;;5102328;28;20208;-69
2021/07/31 02:22:40;;;;;;;1.20;1.00;;;24.40;54.20;;;;;;5103007;28;20180;-70
2021/07/31 02:25:11;;;;;;;1.20;1.00;;;24.40;54.20;;;;;;5105473;28;20579;-70
2021/07/31 02:27:41;;;;;;;1.83;1.10;;;24.40;54.20;;;;;;5096986;28;20193;-70
2021/07/31 02:30:12;;;;;;;1.27;1.17;;;24.40;54.20;;;;;;5104550;28;20228;-70
2021/07/31 02:32:42;;;;;;;1.40;1.03;;;24.40;54.20;;;;;;5099800;28;20204;-70
2021/07/31 02:35:15;;;;;;;1.60;1.10;;;24.40;54.20;;;;;;5101595;28;20245;-70
2021/07/31 02:37:49;;;;;;;1.47;0.90;;;24.40;54.20;;;;;;5091206;28;20201;-69
2021/07/31 02:40:19;;;;;;;1.07;0.83;;;24.40;54.10;;;;;;5088814;28;21481;-70
2021/07/31 02:42:51;;;;;;;1.30;1.10;;;24.40;54.20;;;;;;5093272;28;20193;-70
2021/07/31 02:45:21;;;;;;;0.93;0.83;;;24.40;54.80;;;;;;5100339;28;20262;-70
2021/07/31 02:47:52;;;;;;;1.10;1.00;;;24.40;54.20;;;;;;5108978;28;20257;-70
2021/07/31 02:50:28;;;;;;;1.77;1.13;;;24.40;54.10;;;;;;5099966;28;20214;-70
2021/07/31 02:53:02;;;;;;;1.00;0.90;;;24.40;54.20;;;;;;5106183;28;20639;-70
2021/07/31 02:55:33;;;;;;;1.07;0.87;;;24.40;54.20;;;;;;5100318;28;20194;-70
2021/07/31 02:58:03;;;;;;;1.27;1.07;;;24.40;54.20;;;;;;5096295;27;21079;-70
2021/07/31 03:00:34;;;;;;;2.13;1.20;;;24.40;54.10;;;;;;5102217;28;20211;-69
2021/07/31 03:03:06;;;;;;;1.90;1.10;;;24.40;54.20;;;;;;5106952;28;20257;-69
2021/07/31 03:05:38;;;;;;;1.47;1.07;;;24.30;54.10;;;;;;5103855;28;20223;-70
2021/07/31 03:08:06;;;;;;;1.77;1.10;;;24.30;54.20;;;;;;5096382;28;20208;-70
2021/07/31 03:10:37;;;;;;;1.90;1.07;;;24.30;54.10;;;;;;5089384;28;20193;-70
2021/07/31 03:13:08;;;;;;;1.43;1.03;;;24.40;54.20;;;;;;5098302;28;20217;-70
2021/07/31 03:15:39;;;;;;;1.40;1.10;;;24.40;54.20;;;;;;5105113;28;20271;-70
2021/07/31 03:18:10;;;;;;;2.03;0.97;;;24.40;54.20;;;;;;5098121;28;20567;-70
2021/07/31 03:20:39;;;;;;;1.10;0.90;;;24.40;54.20;;;;;;5106674;28;20427;-70
2021/07/31 03:23:12;;;;;;;1.50;1.17;;;24.40;54.20;;;;;;5095634;28;20196;-70
2021/07/31 03:25:45;;;;;;;1.20;1.10;;;24.30;54.20;;;;;;5093690;28;20216;-70
2021/07/31 03:28:16;;;;;;;1.27;1.07;;;24.30;54.20;;;;;;5096662;28;20184;-70
2021/07/31 03:30:47;;;;;;;1.23;0.90;;;24.30;54.20;;;;;;5105990;28;20211;-70
2021/07/31 03:33:18;;;;;;;1.33;1.10;;;24.30;54.40;;;;;;5092536;28;20213;-70
2021/07/31 03:35:50;;;;;;;1.47;0.97;;;24.30;54.20;;;;;;5101832;28;20215;-70
2021/07/31 03:38:17;;;;;;;1.50;1.07;;;24.30;54.20;;;;;;5096855;28;20192;-70
2021/07/31 03:40:49;;;;;;;1.53;1.10;;;24.30;54.20;;;;;;5101236;28;20490;-70
2021/07/31 03:43:20;;;;;;;1.00;1.00;;;24.30;54.20;;;;;;5093370;28;20208;-70
2021/07/31 03:45:53;;;;;;;1.30;1.20;;;24.30;54.30;;;;;;5098697;28;20550;-70
2021/07/31 03:48:23;;;;;;;1.47;1.17;;;24.30;54.20;;;;;;5108784;28;20200;-70
2021/07/31 03:50:54;;;;;;;1.10;1.00;;;24.30;54.20;;;;;;5098501;28;20262;-70
2021/07/31 03:53:25;;;;;;;1.53;1.03;;;24.30;54.20;;;;;;5096924;28;20590;-70
2021/07/31 03:56:09;;;;;;;1.30;1.20;;;24.30;54.20;;;;;;5105451;28;20188;-71
2021/07/31 03:58:43;;;;;;;1.20;1.00;;;24.30;54.20;;;;;;5100076;28;20236;-70
2021/07/31 04:01:10;;;;;;;1.33;1.00;;;24.30;54.20;;;;;;5108712;28;20199;-71
2021/07/31 04:03:38;;;;;;;1.57;1.17;;;24.30;54.20;;;;;;5101757;28;20212;-70
2021/07/31 04:06:10;;;;;;;1.37;0.93;;;24.30;54.20;;;;;;5109829;28;20259;-70
2021/07/31 04:08:39;;;;;;;1.90;1.10;;;24.30;54.10;;;;;;5100293;28;20200;-70
2021/07/31 04:11:11;;;;;;;1.57;1.20;;;24.30;54.10;;;;;;5106326;28;20207;-71
2021/07/31 04:13:43;;;;;;;1.93;1.37;;;24.30;54.10;;;;;;5103450;28;20291;-71
2021/07/31 04:16:13;;;;;;;1.63;1.00;;;24.30;54.20;;;;;;5109751;28;20199;-71
2021/07/31 04:18:45;;;;;;;1.47;1.10;;;24.30;54.10;;;;;;5109215;28;20196;-71
2021/07/31 04:21:19;;;;;;;1.20;1.10;;;24.30;54.10;;;;;;5104156;28;20196;-70
2021/07/31 04:23:51;;;;;;;1.30;1.20;;;24.30;54.10;;;;;;5102621;28;20257;-70
2021/07/31 04:26:24;;;;;;;2.43;1.27;;;24.30;54.00;;;;;;5111127;28;20196;-70
2021/07/31 04:28:57;;;;;;;1.77;1.00;;;24.20;54.00;;;;;;5099358;28;20256;-70
2021/07/31 04:31:29;;;;;;;1.13;1.03;;;24.20;54.00;;;;;;5108854;27;20249;-70
2021/07/31 04:34:01;;;;;;;2.60;1.20;;;24.30;54.00;;;;;;5106475;28;20296;-70
2021/07/31 04:36:34;;;;;;;1.13;1.00;;;24.20;53.90;;;;;;5106601;28;20193;-71
2021/07/31 04:39:07;;;;;;;1.57;1.17;;;24.20;53.90;;;;;;5102585;28;20201;-72
2021/07/31 04:41:37;;;;;;;2.40;1.40;;;24.20;53.80;;;;;;5099822;28;20435;-71
2021/07/31 04:44:06;;;;;;;1.30;1.10;;;24.20;53.80;;;;;;5106128;28;20564;-71
2021/07/31 04:46:37;;;;;;;1.53;1.00;;;24.20;53.90;;;;;;5108388;28;20208;-70
2021/07/31 04:49:08;;;;;;;1.63;1.00;;;24.20;53.90;;;;;;5107237;28;20193;-70
2021/07/31 04:51:39;;;;;;;1.57;1.10;;;24.20;54.00;;;;;;5104725;28;20192;-70
2021/07/31 04:54:08;;;;;;;0.93;0.83;;;24.20;53.90;;;;;;5100927;28;20299;-70
2021/07/31 04:56:37;;;;;;;1.20;0.93;;;24.20;54.00;;;;;;5104040;28;20205;-72
2021/07/31 04:59:08;;;;;;;1.63;1.17;;;24.20;53.90;;;;;;5106273;28;20203;-71
2021/07/31 05:01:39;;;;;;;1.53;1.10;;;24.10;53.80;;;;;;5103930;28;20289;-70
2021/07/31 05:04:12;;;;;;;1.70;1.20;;;24.20;53.90;;;;;;5107694;28;20212;-70
2021/07/31 05:06:44;;;;;;;1.37;1.20;;;24.20;53.80;;;;;;5103966;28;20257;-71
2021/07/31 05:09:14;;;;;;;1.37;1.00;;;24.20;53.80;;;;;;5111656;28;20200;-71
2021/07/31 05:11:45;;;;;;;1.83;1.10;;;24.20;53.80;;;;;;5104552;28;20185;-70
2021/07/31 05:14:15;;;;;;;0.77;0.77;;;24.10;53.80;;;;;;5108853;28;20669;-70
2021/07/31 05:16:47;;;;;;;1.83;1.20;;;24.20;53.90;;;;;;5103955;28;20185;-70
2021/07/31 05:19:21;;;;;;;1.73;1.23;;;24.10;53.70;;;;;;5104252;28;20254;-70
2021/07/31 05:21:55;;;;;;;0.87;0.80;;;24.20;53.80;;;;;;5097548;28;20196;-70
2021/07/31 05:24:24;;;;;;;1.67;1.20;;;24.20;53.80;;;;;;5105172;28;20204;-70
2021/07/31 05:26:54;;;;;;;1.20;1.07;;;24.20;53.80;;;;;;5109921;28;20200;-70
2021/07/31 05:29:29;;;;;;;1.07;0.90;;;24.20;53.90;;;;;;5102505;28;20200;-70
2021/07/31 05:31:59;;;;;;;1.30;1.20;;;24.20;53.80;;;;;;5101287;28;20546;-71
2021/07/31 05:34:32;;;;;;;0.80;0.80;;;24.20;53.80;;;;;;5106060;28;20284;-71
2021/07/31 05:37:02;;;;;;;1.37;1.00;;;24.20;53.70;;;;;;5105684;28;20657;-71
2021/07/31 05:39:35;;;;;;;1.30;1.20;;;24.20;53.80;;;;;;5103043;28;20273;-71
2021/07/31 05:42:09;;;;;;;1.80;1.13;;;24.20;53.80;;;;;;5118160;28;20244;-71
2021/07/31 05:44:39;;;;;;;1.17;1.00;;;24.20;53.80;;;;;;5110784;28;20200;-71
2021/07/31 05:47:09;;;;;;;1.67;1.00;;;24.20;54.40;;;;;;5127950;28;20248;-72
2021/07/31 05:49:38;;;;;;;1.10;1.00;;;24.20;53.70;;;;;;5125519;28;20202;-71
2021/07/31 05:52:09;;;;;;;2.43;1.20;;;24.10;53.60;;;;;;5126447;28;20196;-72
2021/07/31 05:54:41;;;;;;;1.70;1.17;;;24.20;53.70;;;;;;5119795;28;20332;-72
2021/07/31 05:57:12;;;;;;;1.30;0.90;;;24.10;53.60;;;;;;5101225;28;20192;-70
2021/07/31 05:59:40;;;;;;;1.17;1.07;;;24.20;53.80;;;;;;5100384;28;20214;-70
2021/07/31 06:02:25;;;;;;;1.53;1.20;;;24.20;53.70;;;;;;5104999;28;20284;-70
2021/07/31 06:04:58;;;;;;;1.63;1.20;;;24.10;53.60;;;;;;5104478;28;20650;-70
2021/07/31 06:07:28;;;;;;;1.53;0.90;;;24.20;54.30;;;;;;5099740;28;20197;-70
2021/07/31 06:10:09;;;;;;;1.60;1.10;;;24.20;53.70;;;;;;5095752;28;20858;-70
2021/07/31 06:12:40;;;;;;;2.23;1.30;;;24.10;53.60;;;;;;5082594;28;20212;-70
2021/07/31 06:15:11;;;;;;;2.17;1.27;;;24.10;53.70;;;;;;5109781;28;20196;-71
2021/07/31 06:17:41;;;;;;;1.73;1.10;;;24.10;53.60;;;;;;5102922;28;20204;-71
2021/07/31 06:20:11;;;;;;;1.20;0.83;;;24.10;53.60;;;;;;5109429;28;20226;-71
2021/07/31 06:22:41;;;;;;;3.63;1.00;;;24.10;53.60;;;;;;5094792;28;20191;-70
2021/07/31 06:25:12;;;;;;;1.27;1.10;;;24.10;53.70;;;;;;5098619;28;20675;-70
2021/07/31 06:27:42;;;;;;;1.30;1.20;;;24.10;53.60;;;;;;5124521;27;20275;-71
2021/07/31 06:30:12;;;;;;;1.50;1.20;;;24.10;53.60;;;;;;5100335;28;20707;-71
2021/07/31 06:32:48;;;;;;;1.33;1.03;;;24.10;53.60;;;;;;5105969;28;20220;-70
2021/07/31 06:35:16;;;;;;;1.20;1.00;;;24.10;53.60;;;;;;5099403;28;20235;-70
2021/07/31 06:37:48;;;;;;;1.00;0.90;;;24.10;53.60;;;;;;5091590;28;20266;-70
2021/07/31 06:40:19;;;;;;;1.30;1.20;;;24.10;53.60;;;;;;5106174;28;20688;-71
2021/07/31 06:42:49;;;;;;;1.83;0.97;;;24.10;53.50;;;;;;5106262;28;20236;-71
2021/07/31 06:45:24;;;;;;;1.17;1.07;;;24.10;53.60;;;;;;5104814;28;20244;-71
2021/07/31 06:47:54;;;;;;;1.67;1.20;;;24.10;53.60;;;;;;5107121;28;20227;-71
2021/07/31 06:50:25;;;;;;;1.70;1.27;;;24.10;53.50;;;;;;5100995;28;20236;-70
2021/07/31 06:52:56;;;;;;;2.83;1.20;;;24.10;53.60;;;;;;5124119;27;20795;-70
2021/07/31 06:55:28;;;;;;;1.27;1.07;;;24.10;53.60;;;;;;5104672;28;20196;-70
2021/07/31 06:57:59;;;;;;;1.50;1.20;;;24.10;53.60;;;;;;5102094;28;20208;-70
2021/07/31 07:00:29;;;;;;;1.87;1.17;;;24.10;53.60;;;;;;5104248;28;20211;-70
2021/07/31 07:03:01;;;;;;;1.20;1.10;;;24.10;53.60;;;;;;5100191;28;20196;-70
2021/07/31 07:05:36;;;;;;;1.57;1.30;;;24.10;53.60;;;;;;5107967;28;20201;-71
2021/07/31 07:08:06;;;;;;;1.47;1.23;;;24.10;53.60;;;;;;5098879;27;20201;-71
2021/07/31 07:10:33;;;;;;;1.00;1.00;;;24.10;53.70;;;;;;5103599;28;20760;-70
2021/07/31 07:13:07;;;;;;;1.73;1.10;;;24.10;53.60;;;;;;5084194;28;20216;-70
2021/07/31 07:15:39;;;;;;;1.40;1.30;;;24.10;53.60;;;;;;5110667;28;20819;-70
2021/07/31 07:18:12;;;;;;;1.20;1.10;;;24.10;53.60;;;;;;5098178;28;20203;-70
2021/07/31 07:20:45;;;;;;;1.67;1.50;;;24.10;53.60;;;;;;5080137;28;20201;-71
2021/07/31 07:23:15;;;;;;;1.63;1.20;;;24.10;53.60;;;;;;5099889;28;20279;-71
2021/07/31 07:25:47;;;;;;;1.37;1.13;;;24.10;53.50;;;;;;5107494;28;20188;-70
2021/07/31 07:28:29;;;;;;;1.57;1.07;;;24.10;53.60;;;;;;5090971;28;20216;-70
2021/07/31 07:31:05;;;;;;;1.40;0.93;;;24.10;53.60;;;;;;5095317;28;20203;-72
2021/07/31 07:33:36;;;;;;;1.93;1.40;;;24.10;53.60;;;;;;5101328;28;20250;-71
2021/07/31 07:36:18;;;;;;;1.73;1.57;;;24.10;53.60;;;;;;5101301;28;20201;-72
2021/07/31 07:38:49;;;;;;;1.33;1.20;;;24.10;53.50;;;;;;5106360;28;20203;-71
2021/07/31 07:41:19;;;;;;;2.00;1.43;;;24.10;53.50;;;;;;5095686;28;20236;-70
2021/07/31 07:43:50;;;;;;;1.93;1.20;;;24.10;53.50;;;;;;5092194;28;20200;-70
2021/07/31 07:46:20;;;;;;;1.30;1.20;;;24.10;53.50;;;;;;5100179;28;20185;-71
2021/07/31 07:49:04;;;;;;;1.70;1.33;;;24.10;53.50;;;;;;5107402;28;20290;-71
2021/07/31 07:51:39;;;;;;;1.80;1.40;;;24.10;53.50;;;;;;5094806;28;20829;-71
2021/07/31 07:54:09;;;;;;;1.57;1.30;;;24.10;53.50;;;;;;5099203;28;20698;-71
2021/07/31 07:56:38;;;;;;;1.63;1.17;;;24.20;53.60;;;;;;5101667;28;20210;-70
2021/07/31 07:59:13;;;;;;;1.70;1.30;;;24.10;53.50;;;;;;5100343;28;20512;-70
2021/07/31 08:01:46;;;;;;;2.10;1.53;;;24.10;53.50;;;;;;5096930;28;20204;-70
2021/07/31 08:04:18;;;;;;;2.20;1.30;;;24.10;53.50;;;;;;5102533;28;20211;-70
2021/07/31 08:06:46;;;;;;;1.87;1.33;;;24.10;53.50;;;;;;5107928;28;20227;-71
2021/07/31 08:09:15;;;;;;;1.70;1.50;;;24.10;53.40;;;;;;5084622;28;20203;-72
2021/07/31 08:11:45;;;;;;;1.80;1.40;;;24.10;53.50;;;;;;5103500;28;20250;-71
2021/07/31 08:14:14;;;;;;;1.97;1.30;;;24.10;53.50;;;;;;5099027;28;20216;-71
2021/07/31 08:16:46;;;;;;;1.90;1.47;;;24.10;53.50;;;;;;5106462;28;20193;-72
2021/07/31 08:19:18;;;;;;;2.20;1.40;;;24.10;53.60;;;;;;5099094;28;20239;-72
2021/07/31 08:21:46;;;;;;;2.50;1.67;;;24.10;53.60;;;;;;5092531;28;20196;-70
2021/07/31 08:24:18;;;;;;;1.97;1.23;;;24.10;53.50;;;;;;5100479;28;20211;-70
2021/07/31 08:26:50;;;;;;;1.60;1.50;;;24.10;53.40;;;;;;5104777;28;20223;-70
2021/07/31 08:29:21;;;;;;;1.73;1.50;;;24.10;53.40;;;;;;5103859;28;20645;-70
2021/07/31 08:31:51;;;;;;;1.70;1.40;;;24.10;53.50;;;;;;5099781;28;20207;-70
2021/07/31 08:34:23;;;;;;;2.73;1.70;;;24.10;53.40;;;;;;5104611;28;20222;-70
2021/07/31 08:37:01;;;;;;;1.70;1.60;;;24.10;53.50;;;;;;5102592;28;20857;-71
2021/07/31 08:39:30;;;;;;;2.27;1.60;;;24.10;53.60;;;;;;5102827;28;20192;-71
2021/07/31 08:42:04;;;;;;;1.70;1.60;;;24.10;53.50;;;;;;5097364;28;20315;-71
2021/07/31 08:44:34;;;;;;;1.87;1.70;;;24.10;53.40;;;;;;5094004;28;20225;-71
2021/07/31 08:47:06;;;;;;;2.47;1.60;;;24.20;53.50;;;;;;5101032;28;20235;-71
2021/07/31 08:49:43;;;;;;;2.03;1.60;;;24.10;53.40;;;;;;5098422;28;20205;-71
2021/07/31 08:52:20;;;;;;;1.43;1.30;;;24.10;53.50;;;;;;5091077;28;20235;-71
2021/07/31 08:54:53;;;;;;;1.77;1.50;;;24.10;53.40;;;;;;5092432;28;20220;-71
2021/07/31 08:57:25;;;;;;;1.60;1.50;;;24.10;53.40;;;;;;5101733;28;20648;-70
2021/07/31 08:59:57;;;;;;;2.07;1.40;;;24.10;53.40;;;;;;5102973;28;20648;-71
2021/07/31 09:02:25;;;;;;;2.00;1.20;;;24.20;53.50;;;;;;5102601;28;20729;-70
2021/07/31 09:04:59;;;;;;;1.50;1.40;;;24.10;53.40;;;;;;5088647;28;20196;-71
2021/07/31 09:07:34;;;;;;;1.73;1.50;;;24.20;53.50;;;;;;5107900;28;20237;-70
2021/07/31 09:10:24;;;;;;;1.43;1.33;;;24.20;53.40;;;;;;5100159;28;20212;-70
2021/07/31 09:12:58;;;;;;;2.87;1.60;;;24.20;53.40;;;;;;5080426;28;20262;-70
2021/07/31 09:15:37;;;;;;;1.30;1.20;;;24.20;53.40;;;;;;5102436;28;20191;-72
2021/07/31 09:18:31;;;;;;;1.50;1.40;;;24.10;53.40;;;;;;5110284;28;20260;-71
2021/07/31 09:21:14;;;;;;;2.40;1.57;;;24.20;53.40;;;;;;5095255;28;20202;-71
2021/07/31 09:23:54;;;;;;;1.80;1.20;;;24.20;53.40;;;;;;5106194;28;20201;-72
2021/07/31 09:26:37;;;;;;;1.93;1.33;;;24.20;53.30;;;;;;5109056;28;20192;-70
2021/07/31 09:29:14;;;;;;;2.27;1.60;;;24.20;53.30;;;;;;5124537;27;20215;-71
2021/07/31 09:31:54;;;;;;;1.47;1.37;;;24.20;53.30;;;;;;5098734;28;20750;-70
2021/07/31 09:34:44;;;;;;;3.67;1.63;;;24.20;53.30;;;;;;5102784;28;20245;-70
2021/07/31 09:37:23;;;;;;;3.43;1.40;;;24.20;53.30;;;;;;5106169;28;20192;-70
2021/07/31 09:40:19;;;;;;;1.73;1.50;;;24.20;53.30;;;;;;5109533;28;20659;-70
2021/07/31 09:42:50;;;;;;;1.60;1.50;;;24.20;53.30;;;;;;5097910;28;20236;-70
2021/07/31 09:45:20;;;;;;;1.53;1.43;;;24.20;53.30;;;;;;5110454;28;20204;-70
2021/07/31 09:48:03;;;;;;;1.70;1.60;;;24.20;53.30;;;;;;5100097;28;20217;-70
2021/07/31 09:50:46;;;;;;;1.40;1.30;;;24.20;53.30;;;;;;5100975;28;20296;-72
2021/07/31 09:53:21;;;;;;;1.43;1.33;;;24.20;53.30;;;;;;5101435;28;20200;-71
2021/07/31 09:55:58;;;;;;;1.50;1.40;;;24.30;53.30;;;;;;5106947;28;20195;-71
2021/07/31 09:58:43;;;;;;;1.90;1.70;;;24.20;53.30;;;;;;5104248;28;20203;-72
2021/07/31 10:01:17;;;;;;;1.53;1.43;;;24.30;53.30;;;;;;5104693;28;20189;-70
2021/07/31 10:03:47;;;;;;;1.53;1.43;;;24.30;53.30;;;;;;5101975;28;20577;-71
2021/07/31 10:06:17;;;;;;;1.33;1.23;;;24.30;53.30;;;;;;5104131;28;20648;-72
2021/07/31 10:08:46;;;;;;;1.43;1.20;;;24.30;53.30;;;;;;5109665;28;20203;-72
2021/07/31 10:11:17;;;;;;;1.53;1.30;;;24.30;53.30;;;;;;5101791;28;20310;-71
2021/07/31 10:13:47;;;;;;;1.97;1.60;;;24.30;53.30;;;;;;5109770;28;20495;-70
2021/07/31 10:16:16;;;;;;;1.77;1.67;;;24.30;53.30;;;;;;5089611;28;20254;-70
2021/07/31 10:19:01;;;;;;;1.40;1.30;;;24.30;53.30;;;;;;5107528;28;20201;-70
2021/07/31 10:21:34;;;;;;;1.40;1.30;;;24.30;53.30;;;;;;5102544;28;20219;-70
2021/07/31 10:24:19;;;;;;;1.83;1.60;;;24.30;53.30;;;;;;5103956;28;20201;-70
2021/07/31 10:27:21;;;;;;;1.67;1.57;;;24.30;53.30;;;;;;5091685;28;20192;-71
2021/07/31 10:29:52;;;;;;;1.30;1.20;;;24.30;53.20;;;;;;5099258;28;20207;-71
2021/07/31 10:32:37;;;;;;;1.63;1.53;;;24.30;53.20;;;;;;5107871;28;20203;-70
2021/07/31 10:35:33;;;;;;;1.93;1.63;;;24.30;53.20;;;;;;5103266;28;20236;-70
2021/07/31 10:38:19;;;;;;;1.50;1.40;;;24.30;53.20;;;;;;5116453;27;20189;-70
2021/07/31 10:40:50;;;;;;;1.70;1.50;;;24.30;53.30;;;;;;5104219;28;20192;-70
2021/07/31 10:43:23;;;;;;;1.60;1.50;;;24.30;53.30;;;;;;5106465;28;20238;-70
2021/07/31 10:46:22;;;;;;;1.77;1.50;;;24.30;53.20;;;;;;5103807;28;20210;-71
2021/07/31 10:48:52;;;;;;;1.40;1.30;;;24.30;53.30;;;;;;5098654;28;20294;-72
2021/07/31 10:51:51;;;;;;;1.40;1.30;;;24.30;53.20;;;;;;5110514;28;20200;-71
2021/07/31 10:55:02;;;;;;;1.53;1.43;;;24.30;53.20;;;;;;5101141;28;20553;-70
2021/07/31 10:57:59;;;;;;;1.63;1.53;;;24.30;53.20;;;;;;5104959;28;20257;-70
2021/07/31 11:00:39;;;;;;;1.70;1.60;;;24.30;53.10;;;;;;5078006;28;20212;-70
2021/07/31 11:03:21;;;;;;;1.53;1.43;;;24.30;53.20;;;;;;5114880;28;20215;-70
2021/07/31 11:05:51;;;;;;;1.40;1.30;;;24.30;53.20;;;;;;5120097;28;20207;-71
2021/07/31 11:08:32;;;;;;;1.93;1.40;;;24.30;53.20;;;;;;5104604;28;20750;-72
2021/07/31 11:11:17;;;;;;;1.80;1.70;;;24.30;53.20;;;;;;5107658;28;20212;-70
2021/07/31 11:13:51;;;;;;;1.87;1.63;;;24.30;53.30;;;;;;5100863;28;20847;-70
2021/07/31 11:16:31;;;;;;;1.53;1.43;;;24.30;53.20;;;;;;5105632;28;20199;-70
2021/07/31 11:19:02;;;;;;;1.60;1.50;;;24.30;53.30;;;;;;5098949;28;20196;-70
2021/07/31 11:21:39;;;;;;;1.70;1.60;;;24.40;53.30;;;;;;5085289;28;20240;-70
2021/07/31 11:24:12;;;;;;;1.60;1.50;;;24.40;53.30;;;;;;5102084;28;20203;-70
2021/07/31 11:26:55;;;;;;;1.73;1.60;;;24.30;53.30;;;;;;5101854;28;20300;-70
2021/07/31 11:29:30;;;;;;;1.43;1.33;;;24.40;53.30;;;;;;5093182;28;20210;-70
2021/07/31 11:32:14;;;;;;;1.60;1.40;;;24.40;53.30;;;;;;5099771;28;20784;-71
2021/07/31 11:34:48;;;;;;;1.43;1.33;;;24.40;53.30;;;;;;5104956;28;20569;-70
2021/07/31 11:37:20;;;;;;;1.50;1.40;;;24.40;53.30;;;;;;5102707;28;20212;-71
2021/07/31 11:40:03;;;;;;;1.80;1.70;;;24.40;53.30;;;;;;5107049;28;20206;-71
2021/07/31 11:42:38;;;;;;;1.60;1.50;;;24.40;53.30;;;;;;5103989;28;20311;-71
2021/07/31 11:45:09;;;;;;;1.97;1.60;;;24.40;53.30;;;;;;5107587;28;20661;-71
2021/07/31 11:47:42;;;;;;;1.70;1.60;;;24.40;53.30;;;;;;5108795;28;20340;-71
2021/07/31 11:50:12;;;;;;;1.43;1.33;;;24.40;53.30;;;;;;5095828;28;20539;-75
2021/07/31 11:52:57;;;;;;;1.70;1.60;;;24.40;53.30;;;;;;5098392;28;20283;-71
2021/07/31 11:55:27;;;;;;;1.70;1.60;;;24.40;53.30;;;;;;5098526;28;20764;-71
2021/07/31 11:57:57;;;;;;;1.87;1.70;;;24.50;53.30;;;;;;5100016;28;20200;-71
2021/07/31 12:00:27;;;;;;;1.50;1.40;;;24.40;53.30;;;;;;5101133;28;20188;-71
2021/07/31 12:02:54;;;;;;;1.60;1.50;;;24.50;53.90;;;;;;5100529;28;20282;-71
2021/07/31 12:05:40;;;;;;;1.77;1.67;;;24.50;53.30;;;;;;5103661;28;20208;-71
2021/07/31 12:08:11;;;;;;;1.80;1.70;;;24.40;53.30;;;;;;5097821;28;20204;-72
2021/07/31 12:10:50;;;;;;;1.80;1.70;;;24.40;53.30;;;;;;5100379;28;20257;-71
2021/07/31 12:13:30;;;;;;;1.50;1.40;;;24.50;53.30;;;;;;5086571;28;20228;-70
2021/07/31 12:16:01;;;;;;;1.60;1.50;;;24.50;53.40;;;;;;5090587;28;20665;-72
2021/07/31 12:18:52;;;;;;;1.60;1.50;;;24.50;53.40;;;;;;5104451;28;20208;-72
2021/07/31 12:21:29;;;;;;;1.87;1.73;;;24.50;53.40;;;;;;5101618;28;20192;-71
2021/07/31 12:24:00;;;;;;;1.50;1.40;;;24.50;53.40;;;;;;5096865;28;20199;-71
2021/07/31 12:26:34;;;;;;;1.63;1.53;;;24.50;53.40;;;;;;5104934;28;20216;-71
2021/07/31 12:29:07;;;;;;;1.80;1.70;;;24.50;53.40;;;;;;5100378;28;20676;-71
2021/07/31 12:31:38;;;;;;;2.00;1.90;;;24.60;53.50;;;;;;5105736;28;20184;-71
2021/07/31 12:34:12;;;;;;;1.60;1.50;;;24.50;53.40;;;;;;5090561;28;20185;-70
2021/07/31 12:36:56;;;;;;;1.70;1.60;;;24.50;53.40;;;;;;5105326;28;20193;-71
2021/07/31 12:39:31;;;;;;;1.80;1.70;;;24.60;53.40;;;;;;5092946;28;20527;-71
2021/07/31 12:42:00;;;;;;;1.70;1.60;;;24.50;53.40;;;;;;5104625;28;20825;-71
2021/07/31 12:44:28;;;;;;;1.87;1.77;;;24.60;53.50;;;;;;5112022;28;20204;-71
2021/07/31 12:47:11;;;;;;;2.13;1.97;;;24.60;53.50;;;;;;5101369;28;20650;-71
2021/07/31 12:49:42;;;;;;;1.80;1.70;;;24.60;53.50;;;;;;5098917;28;20207;-71
2021/07/31 12:52:12;;;;;;;1.90;1.80;;;24.60;53.50;;;;;;5103038;28;20204;-71
2021/07/31 12:54:42;;;;;;;1.90;1.80;;;24.60;53.50;;;;;;5109829;28;20208;-71
2021/07/31 12:57:14;;;;;;;2.20;2.00;;;24.60;53.50;;;;;;5103688;28;20201;-71
2021/07/31 12:59:44;;;;;;;2.33;1.73;;;24.60;53.50;;;;;;5108384;28;20235;-71
2021/07/31 13:02:36;;;;;;;1.70;1.60;;;24.60;53.50;;;;;;5108297;28;20267;-71
2021/07/31 13:05:07;;;;;;;2.00;1.90;;;24.60;53.50;;;;;;5107059;28;20208;-71
2021/07/31 13:07:40;;;;;;;2.07;1.90;;;24.60;53.50;;;;;;5101460;28;20209;-71
2021/07/31 13:10:09;;;;;;;1.90;1.80;;;24.60;53.80;;;;;;5101294;28;20201;-71
2021/07/31 13:12:40;;;;;;;2.00;1.90;;;24.70;53.60;;;;;;5111043;28;20235;-71
2021/07/31 13:15:09;;;;;;;2.37;2.20;;;24.70;53.60;;;;;;5101233;28;20215;-71
2021/07/31 13:17:40;;;;;;;2.50;1.60;;;24.70;53.60;;;;;;5110240;28;20204;-71
2021/07/31 13:20:13;;;;;;;2.67;2.10;;;24.70;53.70;;;;;;5104120;28;20195;-72